Time;durP1;ratioP1;P1;durP2;ratioP2;P2;SDS_P1;SDS_P2;PMS_P1;PMS_P2;Temp;Humidity;BMP_temperature;BMP_pressure;BME280_temperature;BME280_humidity;BME280_pressure;Samples;Min_cycle;Max_cycle;Signal;HPM_P1;HPM_P2
2021/07/18 00:02:07;;;;;;;3.08;1.60;;;;;;;21.15;44.67;101987.66;3561595;40;20136;-73
2021/07/18 00:04:36;;;;;;;3.38;1.55;;;;;;;21.12;45.31;101991.66;3566700;40;20139;-73
2021/07/18 00:07:04;;;;;;;3.88;1.50;;;;;;;21.12;45.36;101993.56;3566099;40;20052;-73
2021/07/18 00:09:32;;;;;;;2.83;1.70;;;;;;;21.08;45.13;101990.25;3541862;40;20131;-73
2021/07/18 00:12:00;;;;;;;2.85;1.60;;;;;;;21.07;45.20;101988.53;3564637;40;20062;-73
2021/07/18 00:14:31;;;;;;;3.72;1.70;;;;;;;21.06;45.45;101987.66;3565726;40;20067;-73
2021/07/18 00:16:59;;;;;;;3.80;1.65;;;;;;;21.03;45.74;101989.91;3569209;40;20056;-73
2021/07/18 00:19:27;;;;;;;3.70;1.83;;;;;;;21.00;45.60;101987.44;3567642;40;20045;-73
2021/07/18 00:21:55;;;;;;;4.28;1.70;;;;;;;20.98;45.14;101987.66;3545540;40;20070;-73
2021/07/18 00:24:23;;;;;;;3.97;1.77;;;;;;;20.95;45.16;101985.22;3559362;40;20030;-73
2021/07/18 00:26:51;;;;;;;3.15;1.80;;;;;;;20.92;45.03;101985.53;3548418;40;20050;-74
2021/07/18 00:29:19;;;;;;;3.17;1.80;;;;;;;20.90;45.59;101979.31;3563192;40;20045;-73
2021/07/18 00:31:48;;;;;;;3.33;1.50;;;;;;;20.91;45.65;101980.19;3557550;40;20306;-74
2021/07/18 00:34:17;;;;;;;2.80;1.67;;;;;;;20.87;45.38;101979.59;3565314;40;20042;-73
2021/07/18 00:36:45;;;;;;;4.05;1.70;;;;;;;20.85;45.39;101978.91;3566329;40;20038;-73
2021/07/18 00:39:15;;;;;;;3.10;1.50;;;;;;;20.83;45.51;101971.81;3567550;40;20053;-73
2021/07/18 00:41:43;;;;;;;3.67;1.90;;;;;;;20.82;45.24;101982.06;3564114;40;20057;-73
2021/07/18 00:44:11;;;;;;;2.72;1.70;;;;;;;20.80;45.77;101983.25;3567908;40;20068;-73
2021/07/18 00:46:39;;;;;;;2.72;1.60;;;;;;;20.79;46.19;101981.50;3564306;40;20397;-73
2021/07/18 00:49:09;;;;;;;2.55;1.60;;;;;;;20.79;45.68;101985.16;3558383;40;20422;-73
2021/07/18 00:51:37;;;;;;;3.55;1.55;;;;;;;20.77;45.86;101987.25;3559027;40;20116;-73
2021/07/18 00:54:05;;;;;;;3.28;1.85;;;;;;;20.75;46.09;101985.69;3559071;40;20089;-73
2021/07/18 00:56:33;;;;;;;3.42;1.90;;;;;;;20.74;45.97;101981.19;3547797;40;20030;-74
2021/07/18 00:59:02;;;;;;;2.83;1.65;;;;;;;20.72;46.13;101978.56;3564896;40;20461;-73
2021/07/18 01:01:30;;;;;;;2.92;1.52;;;;;;;20.69;46.38;101974.19;3563209;40;20415;-74
2021/07/18 01:03:58;;;;;;;3.15;1.70;;;;;;;20.68;46.07;101978.03;3567178;40;20057;-73
2021/07/18 01:06:27;;;;;;;3.30;1.77;;;;;;;20.67;46.55;101973.50;3566238;40;20048;-73
2021/07/18 01:08:55;;;;;;;3.45;1.83;;;;;;;20.64;45.58;101975.78;3567496;40;20139;-73
2021/07/18 01:11:23;;;;;;;3.80;2.10;;;;;;;20.61;45.91;101970.53;3548612;40;20042;-73
2021/07/18 01:13:51;;;;;;;3.17;1.75;;;;;;;20.59;45.95;101972.63;3561106;40;20078;-73
2021/07/18 01:16:19;;;;;;;3.35;1.77;;;;;;;20.56;45.96;101971.06;3564351;40;20041;-73
2021/07/18 01:18:47;;;;;;;3.95;2.03;;;;;;;20.55;46.38;101976.78;3570858;40;20057;-73
2021/07/18 01:21:15;;;;;;;3.28;1.67;;;;;;;20.52;46.99;101974.34;3550781;40;20112;-73
2021/07/18 01:23:45;;;;;;;2.90;1.63;;;;;;;20.54;46.39;101980.63;3560583;40;20037;-73
2021/07/18 01:26:13;;;;;;;3.90;1.95;;;;;;;20.49;46.30;101975.56;3565019;40;20049;-73
2021/07/18 01:28:41;;;;;;;3.67;2.20;;;;;;;20.49;46.42;101974.72;3571515;40;20081;-73
2021/07/18 01:31:09;;;;;;;3.30;1.85;;;;;;;20.48;46.26;101982.16;3561238;40;20046;-73
2021/07/18 01:33:38;;;;;;;3.42;2.00;;;;;;;20.46;46.42;101978.69;3567504;40;20069;-73
2021/07/18 01:36:06;;;;;;;3.90;2.22;;;;;;;20.44;46.60;101969.66;3566584;40;20030;-73
2021/07/18 01:38:34;;;;;;;4.30;1.90;;;;;;;20.45;46.27;101967.72;3549534;40;20054;-73
2021/07/18 01:41:03;;;;;;;4.10;2.00;;;;;;;20.44;47.42;101966.88;3554746;40;20050;-73
2021/07/18 01:43:31;;;;;;;4.13;2.00;;;;;;;20.42;47.10;101965.31;3567106;40;20073;-73
2021/07/18 01:45:59;;;;;;;4.22;1.90;;;;;;;20.40;47.25;101959.91;3568394;40;20049;-74
2021/07/18 01:48:27;;;;;;;3.28;1.90;;;;;;;20.40;47.25;101959.06;3571033;40;20056;-73
2021/07/18 01:50:55;;;;;;;2.95;1.83;;;;;;;20.39;46.90;101968.44;3557522;40;20041;-73
2021/07/18 01:53:23;;;;;;;4.03;1.83;;;;;;;20.37;47.24;101960.25;3567240;40;20059;-73
2021/07/18 01:55:55;;;;;;;3.85;2.20;;;;;;;20.40;48.11;101968.25;3557260;40;20131;-73
2021/07/18 01:58:29;;;;;;;5.10;2.13;;;;;;;20.37;48.73;101971.38;3567360;40;20049;-73
2021/07/18 02:00:58;;;;;;;3.85;2.10;;;;;;;20.36;47.80;101971.53;3549379;40;20079;-73
2021/07/18 02:03:26;;;;;;;3.92;2.05;;;;;;;20.35;47.54;101967.88;3546179;40;20054;-73
2021/07/18 02:05:54;;;;;;;5.80;2.30;;;;;;;20.35;47.62;101970.66;3561116;40;20050;-73
2021/07/18 02:08:22;;;;;;;4.13;1.95;;;;;;;20.34;48.25;101963.34;3567273;40;20054;-73
2021/07/18 02:10:50;;;;;;;4.55;2.03;;;;;;;20.33;48.00;101964.44;3566708;40;20085;-73
2021/07/18 02:13:18;;;;;;;2.83;1.70;;;;;;;20.33;47.96;101963.56;3566771;40;20061;-73
2021/07/18 02:15:48;;;;;;;4.00;2.40;;;;;;;20.33;48.33;101964.44;3567648;40;21573;-73
2021/07/18 02:18:16;;;;;;;3.97;2.03;;;;;;;20.31;48.25;101960.94;3571260;40;20057;-73
2021/07/18 02:20:44;;;;;;;4.32;2.15;;;;;;;20.29;48.40;101963.88;3566375;40;20131;-73
2021/07/18 02:23:12;;;;;;;3.35;2.00;;;;;;;20.29;48.40;101960.22;3567138;40;20396;-73
2021/07/18 02:25:40;;;;;;;4.07;1.88;;;;;;;20.27;48.18;101959.53;3566249;40;20131;-73
2021/07/18 02:28:08;;;;;;;3.50;2.10;;;;;;;20.26;48.04;101958.66;3566741;40;20050;-73
2021/07/18 02:30:37;;;;;;;4.63;2.22;;;;;;;20.25;47.75;101958.84;3567348;40;20061;-73
2021/07/18 02:33:06;;;;;;;5.18;2.40;;;;;;;20.24;47.70;101963.53;3568426;40;20410;-73
2021/07/18 02:35:35;;;;;;;4.07;2.28;;;;;;;20.19;47.12;101959.47;3567615;40;20077;-73
2021/07/18 02:38:03;;;;;;;3.80;2.20;;;;;;;20.17;47.19;101961.56;3568227;40;20049;-73
2021/07/18 02:40:32;;;;;;;5.03;2.58;;;;;;;20.14;46.97;101961.91;3567853;40;20458;-74
2021/07/18 02:43:00;;;;;;;4.65;2.20;;;;;;;20.11;47.85;101965.00;3568249;40;20065;-73
2021/07/18 02:45:30;;;;;;;3.83;2.30;;;;;;;20.08;47.43;101957.91;3567395;40;20057;-74
2021/07/18 02:47:58;;;;;;;3.85;2.15;;;;;;;20.06;48.40;101951.63;3573085;40;20134;-73
2021/07/18 02:50:28;;;;;;;3.67;2.10;;;;;;;20.06;48.15;101959.97;3564061;40;20061;-73
2021/07/18 02:52:57;;;;;;;4.97;2.08;;;;;;;20.03;48.01;101959.41;3566064;40;20055;-73
2021/07/18 02:55:25;;;;;;;4.88;2.38;;;;;;;20.01;48.03;101958.75;3568418;40;20049;-73
2021/07/18 02:57:54;;;;;;;4.55;2.20;;;;;;;20.00;47.72;101954.22;3567301;40;20041;-74
2021/07/18 03:00:58;;;;;;;4.30;2.53;;;;;;;19.94;48.77;101953.81;3559543;40;20037;-73
2021/07/18 03:03:40;;;;;;;3.78;2.50;;;;;;;19.92;47.87;101958.69;3552894;40;20041;-73
2021/07/18 03:06:54;;;;;;;;;;;;;;;;;;;;;
2021/07/18 03:10:08;;;;;;;3.72;2.00;;;;;;;19.84;48.17;101958.63;3545029;40;20139;-73
2021/07/18 03:12:37;;;;;;;4.35;2.38;;;;;;;19.84;47.31;101957.81;3553906;40;20040;-73
2021/07/18 03:15:07;;;;;;;4.57;2.28;;;;;;;19.85;47.54;101959.50;3561531;40;20159;-73
2021/07/18 03:17:35;;;;;;;5.43;2.40;;;;;;;19.82;47.57;101954.31;3554866;40;20410;-73
2021/07/18 03:20:06;;;;;;;3.65;2.10;;;;;;;19.82;47.93;101951.53;3568064;40;20061;-73
2021/07/18 03:22:36;;;;;;;4.35;2.33;;;;;;;19.81;48.29;101953.44;3567636;40;20033;-73
2021/07/18 03:25:06;;;;;;;4.40;2.10;;;;;;;19.79;47.98;101955.50;3565077;40;20068;-73
2021/07/18 03:27:35;;;;;;;4.75;2.70;;;;;;;19.77;48.19;101948.38;3567650;40;20526;-73
2021/07/18 03:30:05;;;;;;;5.72;2.33;;;;;;;19.78;48.53;101948.22;3568008;40;20138;-73
2021/07/18 03:32:33;;;;;;;5.25;2.63;;;;;;;19.77;48.76;101949.25;3567235;40;20041;-73
2021/07/18 03:35:02;;;;;;;4.28;2.47;;;;;;;19.76;48.40;101943.88;3567553;40;20189;-73
2021/07/18 03:37:36;;;;;;;3.88;2.25;;;;;;;19.77;48.78;101946.47;3567197;40;20037;-73
2021/07/18 03:40:06;;;;;;;4.65;2.40;;;;;;;19.76;48.10;101944.72;3567563;40;20049;-73
2021/07/18 03:42:34;;;;;;;4.43;2.20;;;;;;;19.74;48.29;101943.16;3567496;40;20127;-73
2021/07/18 03:45:02;;;;;;;4.75;2.60;;;;;;;19.73;48.26;101947.84;3567604;40;20037;-74
2021/07/18 03:47:30;;;;;;;4.85;2.70;;;;;;;19.71;48.56;101946.25;3569720;40;20045;-73
2021/07/18 03:50:02;;;;;;;4.32;2.42;;;;;;;19.69;48.84;101951.09;3567772;40;20053;-73
2021/07/18 03:52:30;;;;;;;4.03;2.10;;;;;;;19.71;48.72;101957.38;3567049;40;20059;-73
2021/07/18 03:54:59;;;;;;;4.93;2.35;;;;;;;19.71;48.67;101958.25;3566675;40;20041;-73
2021/07/18 03:57:27;;;;;;;4.57;2.70;;;;;;;19.68;49.06;101953.00;3566853;40;20502;-73
2021/07/18 03:59:55;;;;;;;4.80;2.50;;;;;;;19.66;48.17;101957.88;3567376;40;20052;-73
2021/07/18 04:02:23;;;;;;;4.85;2.80;;;;;;;19.66;48.58;101962.56;3564291;40;20050;-73
2021/07/18 04:04:52;;;;;;;5.47;2.35;;;;;;;19.64;48.51;101956.28;3567074;40;20057;-73
2021/07/18 04:07:20;;;;;;;4.18;2.70;;;;;;;19.62;48.18;101961.13;3566337;40;20041;-73
2021/07/18 04:09:48;;;;;;;4.07;2.53;;;;;;;19.60;48.49;101969.63;3567860;40;20060;-73
2021/07/18 04:12:17;;;;;;;4.72;2.85;;;;;;;19.59;48.66;101959.59;3537053;40;20520;-73
2021/07/18 04:14:45;;;;;;;5.25;2.67;;;;;;;19.55;49.09;101967.34;3557408;40;20057;-73
2021/07/18 04:17:13;;;;;;;3.97;2.42;;;;;;;19.53;49.16;101963.88;3570445;40;20045;-73
2021/07/18 04:19:41;;;;;;;4.70;2.58;;;;;;;19.53;48.31;101961.09;3569126;40;20061;-73
2021/07/18 04:22:09;;;;;;;5.55;2.70;;;;;;;19.53;48.92;101965.78;3553077;40;20381;-73
2021/07/18 04:24:37;;;;;;;4.68;2.75;;;;;;;19.51;48.35;101967.88;3567630;40;20037;-73
2021/07/18 04:27:05;;;;;;;4.10;2.70;;;;;;;19.51;48.68;101968.69;3546181;40;20089;-73
2021/07/18 04:29:35;;;;;;;3.97;2.33;;;;;;;19.52;49.61;101973.22;3563340;40;20081;-73
2021/07/18 04:32:03;;;;;;;4.25;2.20;;;;;;;19.49;49.01;101956.88;3537408;40;20402;-73
2021/07/18 04:34:32;;;;;;;4.40;2.60;;;;;;;19.49;50.00;101965.22;3566187;40;20492;-73
2021/07/18 04:37:00;;;;;;;3.70;2.50;;;;;;;19.51;49.76;101965.09;3566755;40;20541;-73
2021/07/18 04:39:28;;;;;;;4.22;2.67;;;;;;;19.52;49.93;101973.22;3567580;40;20113;-73
2021/07/18 04:41:56;;;;;;;5.53;2.88;;;;;;;19.51;50.48;101979.81;3560577;40;20127;-73
2021/07/18 04:44:25;;;;;;;4.22;2.85;;;;;;;19.52;49.48;101976.00;3567433;40;20065;-73
2021/07/18 04:46:55;;;;;;;5.15;2.70;;;;;;;19.55;49.72;101984.00;3570661;40;20060;-73
2021/07/18 04:49:24;;;;;;;5.53;2.70;;;;;;;19.54;49.23;101976.72;3571435;40;20144;-73
2021/07/18 04:51:52;;;;;;;4.30;2.72;;;;;;;19.55;49.48;101986.78;3561381;40;20048;-73
2021/07/18 04:54:20;;;;;;;5.55;2.78;;;;;;;19.54;49.60;101985.03;3564392;40;20148;-73
2021/07/18 04:56:48;;;;;;;4.03;2.92;;;;;;;19.56;49.39;101995.97;3565330;40;20078;-73
2021/07/18 04:59:16;;;;;;;4.93;2.78;;;;;;;19.55;49.74;101989.56;3564726;40;20139;-73
2021/07/18 05:01:44;;;;;;;4.50;2.53;;;;;;;19.55;49.90;101984.00;3566398;40;20129;-73
2021/07/18 05:04:14;;;;;;;4.22;2.72;;;;;;;19.57;50.10;101983.84;3557254;40;20049;-73
2021/07/18 05:06:42;;;;;;;5.22;3.33;;;;;;;19.54;49.83;101987.81;3552896;40;20037;-72
2021/07/18 05:09:10;;;;;;;5.00;3.05;;;;;;;19.54;49.44;101985.03;3566076;40;20143;-73
2021/07/18 05:11:38;;;;;;;4.53;2.88;;;;;;;19.56;49.65;101988.53;3552665;40;20053;-73
2021/07/18 05:14:06;;;;;;;6.38;2.80;;;;;;;19.58;49.75;101993.06;3567015;40;20492;-73
2021/07/18 05:16:34;;;;;;;5.90;3.17;;;;;;;19.60;49.99;101996.50;3570363;40;20044;-73
2021/07/18 05:19:02;;;;;;;6.10;3.30;;;;;;;19.63;50.29;101990.63;3572742;40;20072;-73
2021/07/18 05:21:31;;;;;;;7.55;3.10;;;;;;;19.68;50.26;101994.66;3566365;40;20037;-73
2021/07/18 05:23:59;;;;;;;5.00;3.15;;;;;;;19.70;50.61;101994.50;3567489;40;20037;-73
2021/07/18 05:26:27;;;;;;;4.50;2.85;;;;;;;19.75;50.54;101995.75;3566352;40;20053;-73
2021/07/18 05:28:55;;;;;;;7.18;2.90;;;;;;;19.79;50.56;101991.59;3566032;40;20050;-73
2021/07/18 05:31:23;;;;;;;4.40;2.50;;;;;;;19.85;50.39;101995.59;3566663;40;20048;-73
2021/07/18 05:33:51;;;;;;;4.97;2.63;;;;;;;19.92;50.01;101993.94;3567063;40;20127;-73
2021/07/18 05:36:19;;;;;;;5.55;2.78;;;;;;;20.01;50.14;101994.84;3566490;40;20038;-73
2021/07/18 05:38:49;;;;;;;5.70;3.08;;;;;;;20.11;49.78;102001.09;3566704;40;20054;-73
2021/07/18 05:41:17;;;;;;;6.03;3.22;;;;;;;20.18;50.52;101993.84;3553057;40;20048;-73
2021/07/18 05:43:45;;;;;;;4.70;3.05;;;;;;;20.25;50.10;101993.03;3566329;40;20053;-73
2021/07/18 05:46:13;;;;;;;6.07;2.95;;;;;;;20.35;50.32;101983.69;3564742;40;20059;-72
2021/07/18 05:48:40;;;;;;;5.35;3.40;;;;;;;20.41;49.48;101995.03;3556742;40;20313;-73
2021/07/18 05:51:08;;;;;;;5.18;3.08;;;;;;;20.47;49.34;101993.47;3566605;40;20089;-73
2021/07/18 05:53:36;;;;;;;5.63;3.00;;;;;;;20.52;49.22;102000.22;3563834;40;20139;-70
2021/07/18 05:56:06;;;;;;;5.28;2.83;;;;;;;20.59;48.82;102001.28;3547965;40;20390;-70
2021/07/18 05:58:34;;;;;;;4.97;2.95;;;;;;;20.62;49.32;101998.19;3553534;40;20045;-70
2021/07/18 06:01:02;;;;;;;5.10;2.85;;;;;;;20.67;49.10;101992.09;3546627;40;20081;-70
2021/07/18 06:03:32;;;;;;;6.32;3.13;;;;;;;20.70;48.71;101991.75;3559688;40;20065;-70
2021/07/18 06:06:01;;;;;;;5.22;2.65;;;;;;;20.76;48.36;102002.19;3550839;40;20046;-70
2021/07/18 06:08:29;;;;;;;5.40;2.90;;;;;;;20.80;48.59;102002.72;3561250;40;20061;-72
2021/07/18 06:10:57;;;;;;;5.13;2.85;;;;;;;20.84;48.58;102004.09;3555362;40;20045;-71
2021/07/18 06:13:27;;;;;;;5.28;2.85;;;;;;;20.89;48.27;101991.47;3563149;40;20307;-70
2021/07/18 06:15:55;;;;;;;6.55;2.92;;;;;;;20.91;48.43;101994.94;3567995;40;20106;-70
2021/07/18 06:18:23;;;;;;;5.47;2.63;;;;;;;20.96;48.26;102000.00;3566513;40;20053;-71
2021/07/18 06:20:51;;;;;;;5.30;2.78;;;;;;;21.00;48.55;102006.94;3564617;40;20045;-71
2021/07/18 06:23:19;;;;;;;6.32;3.30;;;;;;;21.02;48.47;102005.72;3567888;40;20046;-71
2021/07/18 06:26:00;;;;;;;6.07;3.10;;;;;;;21.04;48.29;101997.22;3554812;40;20045;-71
2021/07/18 06:28:30;;;;;;;5.63;3.40;;;;;;;21.10;48.09;102002.06;3562173;40;20057;-71
2021/07/18 06:30:58;;;;;;;5.55;3.08;;;;;;;21.13;47.74;102001.72;3565869;40;20041;-71
2021/07/18 06:33:27;;;;;;;5.30;2.83;;;;;;;21.18;47.78;102006.75;3566482;40;20057;-71
2021/07/18 06:35:55;;;;;;;5.20;2.90;;;;;;;21.22;47.58;102010.94;3562501;40;20394;-71
2021/07/18 06:38:23;;;;;;;4.35;2.65;;;;;;;21.26;47.70;102015.97;3566966;40;20077;-73
2021/07/18 06:40:51;;;;;;;4.22;2.55;;;;;;;21.31;47.61;102013.56;3566238;40;20128;-71
2021/07/18 06:43:19;;;;;;;5.28;2.83;;;;;;;21.35;47.45;102016.84;3565716;40;20565;-72
2021/07/18 06:45:48;;;;;;;5.20;2.75;;;;;;;21.40;46.66;102020.84;3565107;40;20069;-70
2021/07/18 06:48:16;;;;;;;4.10;2.70;;;;;;;21.42;47.02;102015.09;3565563;40;20045;-71
2021/07/18 06:50:44;;;;;;;3.97;2.42;;;;;;;21.46;46.91;102016.50;3561085;40;20052;-70
2021/07/18 06:53:13;;;;;;;3.97;2.33;;;;;;;21.51;47.01;102016.81;3565146;40;20278;-71
2021/07/18 06:55:41;;;;;;;5.32;2.95;;;;;;;21.56;46.45;102019.13;3564210;40;20069;-71
2021/07/18 06:58:09;;;;;;;4.07;2.50;;;;;;;21.60;46.64;102018.56;3562544;40;20065;-71
2021/07/18 07:00:37;;;;;;;5.13;2.30;;;;;;;21.66;46.94;102022.56;3561747;40;20326;-71
2021/07/18 07:03:06;;;;;;;4.85;2.13;;;;;;;21.73;46.50;102020.81;3561928;40;20033;-71
2021/07/18 07:05:36;;;;;;;4.43;2.10;;;;;;;21.76;46.65;102024.09;3563694;40;20045;-72
2021/07/18 07:08:04;;;;;;;3.50;2.05;;;;;;;21.82;46.37;102019.72;3567556;40;20130;-71
2021/07/18 07:10:32;;;;;;;3.22;1.90;;;;;;;21.89;45.94;102019.91;3564713;40;20180;-71
2021/07/18 07:13:00;;;;;;;3.55;2.00;;;;;;;21.94;45.48;102012.75;3567662;40;20131;-71
2021/07/18 07:15:28;;;;;;;3.15;1.83;;;;;;;21.99;45.60;102012.19;3567213;40;20402;-72
2021/07/18 07:17:57;;;;;;;3.28;1.92;;;;;;;22.05;45.05;102017.06;3568751;40;20056;-72
2021/07/18 07:20:28;;;;;;;2.60;1.60;;;;;;;22.12;44.91;102018.94;3568363;40;20060;-72
2021/07/18 07:22:56;;;;;;;4.00;1.77;;;;;;;22.13;44.52;102017.91;3558090;40;20053;-72
2021/07/18 07:25:24;;;;;;;4.18;1.83;;;;;;;22.15;44.26;102021.34;3568363;40;20384;-71
2021/07/18 07:27:53;;;;;;;3.50;2.00;;;;;;;22.18;44.25;102020.13;3566962;40;20038;-72
2021/07/18 07:30:21;;;;;;;3.25;1.80;;;;;;;22.19;44.48;102021.88;3567242;40;20135;-72
2021/07/18 07:32:49;;;;;;;3.03;1.50;;;;;;;22.22;44.72;102023.47;3562674;40;20123;-72
2021/07/18 07:35:18;;;;;;;2.70;1.52;;;;;;;22.25;44.00;102026.75;3568295;40;20045;-72
2021/07/18 07:37:47;;;;;;;2.80;1.63;;;;;;;22.28;44.09;102020.81;3566674;40;20049;-72
2021/07/18 07:40:17;;;;;;;2.78;1.50;;;;;;;22.30;44.49;102017.84;3568183;40;20064;-72
2021/07/18 07:42:47;;;;;;;2.90;1.80;;;;;;;22.30;44.75;102024.31;3567739;40;20033;-72
2021/07/18 07:45:16;;;;;;;3.17;1.45;;;;;;;22.33;44.79;102017.47;3567855;40;20042;-72
2021/07/18 07:47:44;;;;;;;2.65;1.63;;;;;;;22.37;44.50;102018.88;3567172;40;20034;-72
2021/07/18 07:50:15;;;;;;;2.45;1.55;;;;;;;22.43;44.43;102012.56;3574123;40;20055;-72
2021/07/18 07:52:43;;;;;;;2.47;1.50;;;;;;;22.47;44.34;102016.72;3560648;40;20045;-72
2021/07/18 07:55:13;;;;;;;2.30;1.60;;;;;;;22.56;44.51;102010.06;3568202;40;20130;-72
2021/07/18 07:57:41;;;;;;;3.22;1.75;;;;;;;22.60;44.41;102016.09;3566450;40;20049;-72
2021/07/18 08:00:11;;;;;;;3.15;1.60;;;;;;;22.67;44.10;102014.31;3566416;40;20588;-72
2021/07/18 08:02:39;;;;;;;3.15;1.50;;;;;;;22.69;44.42;102015.88;3535513;40;20084;-72
2021/07/18 08:05:10;;;;;;;2.55;1.50;;;;;;;22.75;43.91;102009.56;3568316;40;20065;-72
2021/07/18 08:07:38;;;;;;;2.95;1.50;;;;;;;22.81;44.23;102011.59;3567185;40;20048;-72
2021/07/18 08:10:08;;;;;;;2.90;1.52;;;;;;;22.89;44.26;102008.78;3562238;40;20115;-72
2021/07/18 08:12:38;;;;;;;3.38;1.90;;;;;;;22.97;43.81;102015.38;3565420;40;20037;-72
2021/07/18 08:15:09;;;;;;;3.92;1.77;;;;;;;23.02;43.47;102013.75;3568717;40;20053;-73
2021/07/18 08:17:37;;;;;;;3.47;1.75;;;;;;;23.06;43.53;102014.22;3572658;40;20056;-72
2021/07/18 08:20:07;;;;;;;4.05;1.75;;;;;;;23.10;43.11;101999.72;3561847;40;20045;-72
2021/07/18 08:22:35;;;;;;;3.67;1.80;;;;;;;23.14;43.26;102008.56;3567318;40;20045;-72
2021/07/18 08:25:04;;;;;;;3.17;2.08;;;;;;;23.16;42.76;102003.69;3568644;40;20048;-72
2021/07/18 08:27:35;;;;;;;3.30;1.80;;;;;;;23.18;43.27;102005.25;3566518;40;20041;-72
2021/07/18 08:30:07;;;;;;;3.88;1.60;;;;;;;23.24;42.84;102003.59;3567780;40;20045;-72
2021/07/18 08:32:35;;;;;;;3.67;1.90;;;;;;;23.25;43.32;102008.13;3558465;40;20135;-72
2021/07/18 08:35:05;;;;;;;3.47;1.75;;;;;;;23.32;43.13;101997.94;3558606;40;20045;-72
2021/07/18 08:37:33;;;;;;;3.55;1.65;;;;;;;23.41;42.91;102001.53;3567113;40;20037;-72
2021/07/18 08:40:02;;;;;;;2.40;1.50;;;;;;;23.45;43.47;101992.59;3567928;40;20166;-73
2021/07/18 08:42:31;;;;;;;2.67;1.58;;;;;;;23.54;43.31;101999.00;3568691;40;20038;-72
2021/07/18 08:45:01;;;;;;;3.33;1.80;;;;;;;23.62;42.53;102001.72;3567940;40;20131;-72
2021/07/18 08:47:30;;;;;;;2.92;1.48;;;;;;;23.69;42.74;101994.28;3571703;40;20084;-72
2021/07/18 08:49:58;;;;;;;1.92;1.30;;;;;;;23.73;43.08;101990.03;3550559;40;20398;-72
2021/07/18 08:52:27;;;;;;;2.88;1.55;;;;;;;23.79;43.33;101989.28;3562241;40;20136;-72
2021/07/18 08:55:31;;;;;;;3.35;1.88;;;;;;;23.88;41.22;101995.66;3568195;40;20061;-72
2021/07/18 08:58:02;;;;;;;3.00;1.73;;;;;;;23.93;41.14;101984.75;3566845;40;20077;-72
2021/07/18 09:00:30;;;;;;;2.72;1.60;;;;;;;23.96;41.46;101987.16;3558149;40;20061;-73
2021/07/18 09:03:00;;;;;;;3.30;1.60;;;;;;;24.01;41.66;101987.44;3566836;40;20053;-72
2021/07/18 09:05:28;;;;;;;2.83;1.60;;;;;;;24.01;41.86;101993.03;3569593;40;20081;-73
2021/07/18 09:07:57;;;;;;;5.60;1.75;;;;;;;24.05;41.28;101986.84;3570163;40;20065;-73
2021/07/18 09:10:27;;;;;;;3.67;1.90;;;;;;;24.10;41.74;101985.44;3567664;40;20052;-73
2021/07/18 09:13:06;;;;;;;3.38;1.65;;;;;;;24.17;40.97;101975.22;3567282;40;20037;-72
2021/07/18 09:15:45;;;;;;;2.95;1.50;;;;;;;24.24;42.38;101984.53;3550206;40;20065;-72
2021/07/18 09:18:17;;;;;;;3.25;1.48;;;;;;;24.30;41.76;101979.03;3570880;40;20398;-71
2021/07/18 09:20:47;;;;;;;2.50;1.60;;;;;;;24.36;42.51;101977.41;3566934;40;20055;-71
2021/07/18 09:23:17;;;;;;;3.65;1.60;;;;;;;24.44;41.35;101969.75;3566787;40;20291;-72
2021/07/18 09:25:47;;;;;;;2.47;1.23;;;;;;;24.53;41.40;101972.44;3553134;40;20096;-71
2021/07/18 09:28:17;;;;;;;3.22;1.40;;;;;;;24.60;41.06;101965.84;3563520;40;20057;-72
2021/07/18 09:30:46;;;;;;;2.50;1.40;;;;;;;24.65;41.28;101971.72;3566961;40;20057;-72
2021/07/18 09:33:24;;;;;;;2.97;1.50;;;;;;;24.74;40.04;101972.47;3567289;40;20131;-71
2021/07/18 09:36:09;;;;;;;2.38;1.33;;;;;;;24.79;40.50;101968.00;3566469;40;20430;-72
2021/07/18 09:38:38;;;;;;;2.47;1.35;;;;;;;24.82;40.23;101966.75;3566867;40;20176;-72
2021/07/18 09:41:06;;;;;;;2.70;1.70;;;;;;;24.89;40.61;101973.28;3553374;40;20053;-71
2021/07/18 09:43:34;;;;;;;2.85;1.60;;;;;;;24.95;40.81;101961.25;3562924;40;20049;-72
2021/07/18 09:46:07;;;;;;;3.10;1.38;;;;;;;25.03;39.85;101963.09;3569178;40;20040;-71
2021/07/18 09:48:40;;;;;;;2.35;1.40;;;;;;;25.07;39.78;101967.19;3572904;40;20053;-71
2021/07/18 09:51:10;;;;;;;2.80;1.52;;;;;;;25.09;39.22;101965.94;3566481;40;20422;-71
2021/07/18 09:53:39;;;;;;;3.05;1.50;;;;;;;25.12;39.78;101959.91;3567038;40;20045;-72
2021/07/18 09:56:09;;;;;;;2.72;1.50;;;;;;;25.18;39.47;101973.13;3566292;40;20359;-72
2021/07/18 09:58:39;;;;;;;2.38;1.63;;;;;;;25.19;38.36;101972.06;3566702;40;20053;-72
2021/07/18 10:01:16;;;;;;;3.67;1.77;;;;;;;25.20;38.43;101959.75;3563163;40;20081;-72
2021/07/18 10:03:48;;;;;;;2.60;1.52;;;;;;;25.22;37.63;101958.69;3566519;40;20045;-71
2021/07/18 10:06:18;;;;;;;2.50;1.60;;;;;;;25.20;39.11;101962.56;3555104;40;20429;-71
2021/07/18 10:08:48;;;;;;;3.25;1.98;;;;;;;25.26;39.10;101960.06;3561905;40;20037;-71
2021/07/18 10:11:18;;;;;;;4.28;2.08;;;;;;;25.31;39.45;101952.78;3568268;40;20045;-72
2021/07/18 10:13:48;;;;;;;3.60;1.90;;;;;;;25.35;38.82;101953.25;3566460;40;20093;-72
2021/07/18 10:16:17;;;;;;;4.85;2.15;;;;;;;25.40;39.03;101950.69;3569476;40;20041;-71
2021/07/18 10:18:49;;;;;;;4.10;1.85;;;;;;;25.46;39.16;101938.66;3568060;40;20131;-72
2021/07/18 10:21:20;;;;;;;3.65;1.77;;;;;;;25.48;39.43;101940.19;3570533;40;20046;-72
2021/07/18 10:23:50;;;;;;;4.57;2.00;;;;;;;25.51;39.72;101937.00;3557840;40;20053;-71
2021/07/18 10:26:20;;;;;;;2.72;1.83;;;;;;;25.58;39.18;101937.03;3557354;40;20119;-72
2021/07/18 10:28:51;;;;;;;3.55;1.75;;;;;;;25.62;39.00;101943.94;3562558;40;20089;-72
2021/07/18 10:31:25;;;;;;;3.88;2.10;;;;;;;25.66;38.28;101939.66;3559943;40;20050;-71
2021/07/18 10:33:57;;;;;;;3.92;2.17;;;;;;;25.71;38.74;101939.91;3552422;40;20146;-71
2021/07/18 10:36:27;;;;;;;4.50;2.00;;;;;;;25.72;38.33;101930.44;3563515;40;20030;-71
2021/07/18 10:38:55;;;;;;;3.78;2.08;;;;;;;25.75;38.61;101938.44;3565092;40;20056;-70
2021/07/18 10:41:43;;;;;;;4.18;2.15;;;;;;;25.79;39.04;101924.84;3556840;40;20414;-74
2021/07/18 10:44:13;;;;;;;4.85;2.47;;;;;;;25.82;39.15;101922.53;3554954;40;20080;-73
2021/07/18 10:46:57;;;;;;;3.40;1.83;;;;;;;25.86;36.61;101922.97;3568228;40;20033;-73
2021/07/18 10:49:56;;;;;;;5.07;2.40;;;;;;;25.87;36.88;101914.38;3561242;40;20089;-73
2021/07/18 10:52:29;;;;;;;3.72;2.05;;;;;;;25.90;37.45;101916.75;3564965;40;20049;-73
2021/07/18 10:54:58;;;;;;;4.15;2.22;;;;;;;25.92;37.37;101916.56;3565696;40;20064;-72
2021/07/18 10:57:29;;;;;;;3.10;1.85;;;;;;;25.97;38.20;101921.53;3548787;40;20045;-72
2021/07/18 11:00:18;;;;;;;3.53;2.10;;;;;;;25.96;37.97;101914.19;3565793;40;20057;-73
2021/07/18 11:02:48;;;;;;;3.58;1.75;;;;;;;25.99;37.94;101906.25;3567937;40;20038;-73
2021/07/18 11:05:18;;;;;;;3.63;1.83;;;;;;;26.06;38.09;101909.94;3567863;40;20473;-73
2021/07/18 11:07:55;;;;;;;3.00;1.70;;;;;;;26.13;38.06;101898.72;3567433;40;20141;-73
2021/07/18 11:10:25;;;;;;;3.78;1.80;;;;;;;26.13;37.63;101908.00;3567497;40;20053;-73
2021/07/18 11:13:02;;;;;;;3.28;1.90;;;;;;;26.20;37.09;101899.59;3569272;40;20056;-72
2021/07/18 11:15:40;;;;;;;3.47;1.88;;;;;;;26.22;36.62;101895.53;3569240;40;20064;-73
2021/07/18 11:18:11;;;;;;;3.15;1.90;;;;;;;26.25;37.55;101889.50;3576097;40;20063;-73
2021/07/18 11:20:54;;;;;;;2.65;1.63;;;;;;;26.31;36.19;101893.41;3558851;40;20115;-72
2021/07/18 11:23:28;;;;;;;2.92;1.75;;;;;;;26.34;36.87;101887.38;3568550;40;20049;-73
2021/07/18 11:26:08;;;;;;;4.43;1.85;;;;;;;26.38;36.98;101887.81;3569165;40;20127;-73
2021/07/18 11:28:51;;;;;;;2.72;1.75;;;;;;;26.42;37.11;101877.91;3568815;40;20034;-73
2021/07/18 11:31:29;;;;;;;5.80;1.80;;;;;;;26.47;36.74;101881.81;3567968;40;20123;-73
2021/07/18 11:34:08;;;;;;;2.85;1.70;;;;;;;26.52;37.39;101890.44;3568302;40;20143;-72
2021/07/18 11:37:02;;;;;;;3.67;1.80;;;;;;;26.52;37.25;101878.34;3566249;40;20053;-74
2021/07/18 11:39:33;;;;;;;4.07;1.90;;;;;;;26.56;36.39;101877.72;3562095;40;20071;-73
2021/07/18 11:42:08;;;;;;;4.03;2.00;;;;;;;26.64;37.07;101876.66;3567744;40;20068;-73